Time;durP1;ratioP1;P1;durP2;ratioP2;P2;SDS_P1;SDS_P2;PMS_P1;PMS_P2;Temp;Humidity;BMP_temperature;BMP_pressure;BME280_temperature;BME280_humidity;BME280_pressure;Samples;Min_cycle;Max_cycle;Signal;HPM_P1;HPM_P2
2022/12/08 00:01:12;;;;;;;3.67;1.30;;;;;;;12.80;64.04;102228.84;5035096;28;20076;-44
2022/12/08 00:03:39;;;;;;;6.18;1.77;;;;;;;12.74;65.01;102224.22;5034008;28;20029;-45
2022/12/08 00:11:35;;;;;;;2.10;1.42;;;;;;;12.89;66.30;102222.34;5035146;28;20064;-44
2022/12/08 00:14:02;;;;;;;3.70;1.77;;;;;;;12.78;66.35;102230.06;5035481;28;20033;-44
2022/12/08 00:16:28;;;;;;;5.22;1.95;;;;;;;12.73;66.18;102227.09;5034899;28;20509;-44
2022/12/08 00:18:54;;;;;;;3.33;1.50;;;;;;;12.85;65.90;102229.09;5050947;28;20136;-46
2022/12/08 00:21:20;;;;;;;6.28;1.65;;;;;;;12.83;65.78;102228.47;5034975;28;20030;-47
2022/12/08 00:23:47;;;;;;;3.03;1.70;;;;;;;12.83;65.99;102217.72;5048610;28;20035;-45
2022/12/08 00:26:14;;;;;;;3.15;1.67;;;;;;;12.98;65.29;102216.84;5060379;28;20068;-43
2022/12/08 00:28:40;;;;;;;8.98;1.70;;;;;;;12.72;66.28;102212.00;5051579;28;20044;-43
2022/12/08 00:31:10;;;;;;;3.97;2.03;;;;;;;12.64;66.83;102211.06;5054536;28;20071;-44
2022/12/08 00:33:37;;;;;;;5.43;2.20;;;;;;;12.66;66.86;102216.25;5054356;28;20029;-44
2022/12/08 00:36:08;;;;;;;5.88;1.92;;;;;;;12.34;67.40;102217.47;5053916;28;20057;-44
2022/12/08 00:38:35;;;;;;;5.95;1.80;;;;;;;12.25;68.03;102222.06;5054296;28;20072;-45
2022/12/08 00:41:02;;;;;;;5.38;1.73;;;;;;;12.37;67.73;102217.91;5047293;28;20536;-44
2022/12/08 00:43:28;;;;;;;5.18;1.77;;;;;;;12.41;67.92;102221.06;5054722;28;20025;-48
2022/12/08 00:45:54;;;;;;;5.57;2.05;;;;;;;12.26;68.47;102220.22;5054837;28;20029;-45
2022/12/08 00:48:21;;;;;;;4.60;1.77;;;;;;;12.40;68.29;102219.41;5054425;28;20033;-44
2022/12/08 00:50:47;;;;;;;2.78;1.98;;;;;;;12.22;68.81;102219.75;5054419;28;20060;-43
2022/12/08 00:53:13;;;;;;;5.25;2.17;;;;;;;12.20;69.35;102215.56;5063372;28;20102;-46
2022/12/08 00:55:39;;;;;;;4.82;1.70;;;;;;;12.08;70.26;102215.19;5055506;28;20529;-44
2022/12/08 00:58:06;;;;;;;10.43;2.28;;;;;;;11.93;71.17;102214.31;5056991;28;20112;-44
2022/12/08 01:00:32;;;;;;;3.35;2.35;;;;;;;12.06;71.52;102220.75;5044144;28;20029;-43
2022/12/08 01:02:58;;;;;;;4.53;2.35;;;;;;;12.01;71.80;102217.78;5043756;28;20061;-46
2022/12/08 01:05:24;;;;;;;5.45;2.47;;;;;;;11.96;71.79;102222.00;5054640;28;20035;-44
2022/12/08 01:07:50;;;;;;;6.82;2.63;;;;;;;11.88;72.27;102215.72;5054324;28;20146;-45
2022/12/08 01:10:17;;;;;;;5.07;2.60;;;;;;;11.77;73.49;102216.13;5035957;28;20025;-44
2022/12/08 01:12:43;;;;;;;5.32;3.05;;;;;;;11.64;74.09;102222.06;5033957;28;20029;-45
2022/12/08 01:15:10;;;;;;;7.70;2.97;;;;;;;11.55;74.51;102217.78;5034323;28;20466;-45
2022/12/08 01:17:36;;;;;;;9.95;2.90;;;;;;;11.65;74.30;102220.22;5036749;28;20082;-44
2022/12/08 01:20:03;;;;;;;4.45;2.63;;;;;;;11.66;74.19;102210.31;5061979;28;20362;-43
2022/12/08 01:22:30;;;;;;;7.10;2.83;;;;;;;11.44;75.32;102210.16;5053803;28;20032;-45
2022/12/08 01:24:56;;;;;;;4.47;2.70;;;;;;;11.47;75.22;102208.97;5053881;28;20053;-44
2022/12/08 01:27:22;;;;;;;5.55;2.88;;;;;;;11.38;75.67;102205.47;5053897;28;20485;-45
2022/12/08 01:29:48;;;;;;;5.43;2.70;;;;;;;11.41;75.40;102209.66;5054181;28;20036;-43
2022/12/08 01:32:15;;;;;;;5.68;2.95;;;;;;;11.29;75.53;102219.97;5053506;28;20104;-43
2022/12/08 01:34:41;;;;;;;8.55;3.13;;;;;;;11.19;75.81;102219.34;5053464;28;20043;-45
2022/12/08 01:37:07;;;;;;;5.60;2.70;;;;;;;11.20;75.83;102212.97;5059768;28;20020;-43
2022/12/08 01:39:34;;;;;;;8.18;3.35;;;;;;;11.24;75.54;102209.78;5065215;28;20020;-44
2022/12/08 01:42:00;;;;;;;5.28;2.95;;;;;;;11.14;75.95;102219.03;5053324;28;20532;-44
2022/12/08 01:44:27;;;;;;;7.25;3.08;;;;;;;11.03;76.61;102212.22;5053453;28;20025;-43
2022/12/08 01:46:54;;;;;;;5.15;2.83;;;;;;;10.96;77.17;102222.00;5051077;28;20473;-43
2022/12/08 01:49:25;;;;;;;4.78;2.90;;;;;;;10.61;78.36;102226.00;5043396;28;20493;-45
2022/12/08 01:52:18;;;;;;;10.15;3.28;;;;;;;10.41;77.92;102218.34;5051851;28;20095;-43
2022/12/08 01:54:55;;;;;;;8.02;3.20;;;;;;;10.51;77.44;102216.31;5060783;28;20036;-43
2022/12/08 01:57:28;;;;;;;6.63;3.10;;;;;;;10.14;78.47;102224.03;5046264;28;20117;-43
2022/12/08 02:00:05;;;;;;;6.20;2.63;;;;;;;10.10;78.78;102230.72;5033268;28;20494;-43
2022/12/08 02:02:39;;;;;;;5.88;2.55;;;;;;;10.22;77.99;102232.06;5033111;28;20026;-43
2022/12/08 02:05:06;;;;;;;6.53;2.70;;;;;;;10.17;77.97;102232.56;5037019;28;20029;-43
2022/12/08 02:07:35;;;;;;;5.63;2.50;;;;;;;10.27;76.89;102240.44;5050238;28;20033;-44
2022/12/08 02:10:03;;;;;;;5.10;3.03;;;;;;;10.16;77.62;102232.72;5032400;28;20033;-43
2022/12/08 02:12:29;;;;;;;5.18;3.15;;;;;;;10.14;77.45;102242.75;5051548;28;20070;-43
2022/12/08 02:14:55;;;;;;;5.97;2.95;;;;;;;10.17;76.91;102250.47;5051865;28;20031;-43
2022/12/08 02:17:36;;;;;;;4.90;2.50;;;;;;;10.16;76.86;102249.63;5052889;28;20025;-43
2022/12/08 02:20:34;;;;;;;5.20;2.25;;;;;;;10.04;76.90;102245.59;5052880;28;20081;-44
2022/12/08 02:23:11;;;;;;;7.70;3.05;;;;;;;10.05;76.79;102248.13;5047868;28;20037;-43
2022/12/08 02:25:37;;;;;;;5.55;2.67;;;;;;;10.04;76.48;102243.75;5032713;28;20053;-43
2022/12/08 02:28:15;;;;;;;4.30;2.33;;;;;;;10.02;75.93;102245.78;5039725;28;20143;-43
2022/12/08 02:30:58;;;;;;;4.28;2.53;;;;;;;9.98;76.01;102256.97;5036959;28;20034;-43
2022/12/08 02:33:36;;;;;;;6.95;2.95;;;;;;;9.94;75.66;102255.66;5033470;28;20040;-43
2022/12/08 02:36:23;;;;;;;5.28;2.97;;;;;;;9.89;75.55;102260.69;5049820;28;20086;-43
2022/12/08 02:39:04;;;;;;;4.00;3.42;;;;;;;9.85;75.21;102265.50;5052558;28;20441;-43
2022/12/08 02:41:41;;;;;;;8.85;3.60;;;;;;;9.58;76.49;102265.81;5052171;28;20172;-42
2022/12/08 02:44:34;;;;;;;3.92;2.97;;;;;;;9.64;76.02;102268.66;5052317;28;20036;-44
2022/12/08 02:47:06;;;;;;;3.63;2.78;;;;;;;9.59;75.90;102270.97;5032698;28;20095;-43
2022/12/08 02:49:34;;;;;;;5.50;2.65;;;;;;;9.55;75.74;102275.00;5052244;28;20562;-43
2022/12/08 02:52:13;;;;;;;5.53;2.90;;;;;;;9.56;75.48;102275.84;5051955;28;20035;-43
2022/12/08 02:55:08;;;;;;;5.22;2.83;;;;;;;9.25;76.24;102273.75;5052269;28;20078;-44
2022/12/08 02:58:11;;;;;;;7.22;3.03;;;;;;;9.25;76.57;102273.75;5059206;28;20040;-43
2022/12/08 03:00:48;;;;;;;7.22;3.17;;;;;;;9.29;76.11;102274.28;5041342;28;20028;-43
2022/12/08 03:03:36;;;;;;;4.13;3.38;;;;;;;9.28;75.92;102272.59;5043067;28;20036;-44
2022/12/08 03:06:24;;;;;;;9.38;4.25;;;;;;;9.20;76.26;102286.75;5032450;28;20041;-43
2022/12/08 03:09:09;;;;;;;7.43;3.65;;;;;;;9.15;76.28;102292.56;5044594;28;20439;-44
2022/12/08 03:11:58;;;;;;;7.25;3.20;;;;;;;9.17;76.39;102293.25;5051923;28;20033;-43
2022/12/08 03:14:25;;;;;;;6.07;2.83;;;;;;;9.07;76.35;102291.72;5051915;28;20033;-45
2022/12/08 03:16:55;;;;;;;2.90;2.60;;;;;;;9.05;76.35;102293.69;5052009;28;20068;-42
2022/12/08 03:19:33;;;;;;;4.95;2.60;;;;;;;8.93;76.81;102293.13;5052298;28;20048;-41
2022/12/08 03:22:03;;;;;;;3.63;2.38;;;;;;;9.04;76.54;102300.88;5031861;28;20406;-42
2022/12/08 03:24:34;;;;;;;5.40;2.60;;;;;;;9.17;75.38;102293.25;5031546;28;20080;-42
2022/12/08 03:27:22;;;;;;;4.28;2.05;;;;;;;9.03;75.60;102301.03;5046303;28;20056;-42
2022/12/08 03:29:52;;;;;;;6.68;2.30;;;;;;;8.99;75.36;102305.84;5048506;28;20033;-42
2022/12/08 03:32:34;;;;;;;5.00;2.40;;;;;;;8.95;75.28;102313.38;5048477;28;20045;-42
2022/12/08 03:35:07;;;;;;;4.78;2.30;;;;;;;8.79;75.43;102315.13;5050020;28;20025;-42
2022/12/08 03:37:35;;;;;;;3.33;2.00;;;;;;;8.66;76.26;102319.06;5051779;28;20446;-42
2022/12/08 03:40:05;;;;;;;5.32;2.55;;;;;;;8.66;75.97;102320.84;5048531;28;20107;-42
2022/12/08 03:42:31;;;;;;;10.30;3.88;;;;;;;8.53;76.29;102323.94;5030646;28;20038;-43
2022/12/08 03:44:57;;;;;;;9.98;3.08;;;;;;;8.49;76.26;102322.56;5034179;28;20041;-42
2022/12/08 03:47:23;;;;;;;4.32;2.72;;;;;;;8.39;76.49;102324.53;5069495;28;20028;-42
2022/12/08 03:49:50;;;;;;;3.97;2.53;;;;;;;8.37;76.40;102322.00;5067443;28;20409;-44
2022/12/08 03:52:16;;;;;;;6.68;2.47;;;;;;;8.39;76.00;102329.88;5049426;28;20469;-43
2022/12/08 03:54:42;;;;;;;5.82;2.67;;;;;;;8.31;76.04;102327.91;5050821;28;20072;-42
2022/12/08 03:57:09;;;;;;;5.53;3.25;;;;;;;7.92;77.97;102330.06;5051558;28;20029;-43
2022/12/08 03:59:35;;;;;;;7.60;3.05;;;;;;;7.24;82.04;102335.00;5051821;28;20496;-42
2022/12/08 04:02:01;;;;;;;6.75;3.63;;;;;;;7.22;82.29;102339.63;5050274;28;20060;-42
2022/12/08 04:04:27;;;;;;;7.53;3.45;;;;;;;7.46;81.54;102339.09;5051931;28;20029;-42
2022/12/08 04:06:53;;;;;;;6.07;3.10;;;;;;;7.49;81.21;102336.94;5067464;28;20074;-42
2022/12/08 04:09:20;;;;;;;8.23;3.63;;;;;;;7.39;81.56;102336.19;5070517;28;20025;-43
2022/12/08 04:11:46;;;;;;;4.57;3.17;;;;;;;7.48;81.35;102339.78;5068920;28;20056;-43
2022/12/08 04:14:12;;;;;;;6.32;3.05;;;;;;;7.47;81.27;102344.25;5071601;28;20488;-43
2022/12/08 04:16:39;;;;;;;5.53;3.15;;;;;;;7.32;81.70;102351.06;5069841;28;20039;-42
2022/12/08 04:19:05;;;;;;;4.95;2.58;;;;;;;7.41;81.28;102347.53;5071463;28;20025;-46
2022/12/08 04:21:31;;;;;;;5.82;2.72;;;;;;;7.27;81.77;102353.31;5043850;28;20167;-42
2022/12/08 04:23:58;;;;;;;4.40;2.30;;;;;;;7.28;81.44;102349.69;5030536;28;20021;-45
2022/12/08 04:26:24;;;;;;;5.75;2.70;;;;;;;7.35;80.89;102358.78;5049594;28;20481;-43
2022/12/08 04:28:50;;;;;;;6.65;2.47;;;;;;;7.30;80.78;102358.38;5051054;28;20033;-42
2022/12/08 04:31:16;;;;;;;2.47;2.03;;;;;;;7.38;80.49;102364.66;5048911;28;20381;-42
2022/12/08 04:33:44;;;;;;;2.72;2.35;;;;;;;7.29;80.39;102362.03;5054516;28;20089;-43
2022/12/08 04:36:10;;;;;;;4.25;2.10;;;;;;;7.04;81.79;102368.84;5068780;28;20036;-42
2022/12/08 04:38:36;;;;;;;3.45;2.20;;;;;;;6.85;82.94;102378.56;5059811;28;20029;-43
2022/12/08 04:41:03;;;;;;;3.00;2.00;;;;;;;6.98;82.97;102382.72;5042178;28;20452;-44
2022/12/08 04:43:29;;;;;;;8.52;2.50;;;;;;;7.11;82.14;102386.78;5034432;28;20386;-43
2022/12/08 04:45:55;;;;;;;10.32;2.67;;;;;;;7.15;82.42;102393.47;5037684;28;20074;-43
2022/12/08 04:48:22;;;;;;;7.15;2.40;;;;;;;7.02;83.00;102387.63;5035085;28;20114;-43
2022/12/08 04:50:49;;;;;;;5.65;2.40;;;;;;;7.07;83.08;102396.03;5036056;28;20029;-43
2022/12/08 04:53:15;;;;;;;3.90;2.20;;;;;;;7.26;82.05;102388.94;5054467;28;20029;-44
2022/12/08 04:55:43;;;;;;;5.88;1.80;;;;;;;7.31;81.80;102400.84;5069120;28;20111;-42
2022/12/08 04:58:12;;;;;;;3.70;2.25;;;;;;;7.73;79.09;102394.19;5056752;28;20527;-41
2022/12/08 05:00:39;;;;;;;4.55;2.10;;;;;;;7.71;78.13;102404.16;5045784;28;20113;-43
2022/12/08 05:03:05;;;;;;;4.60;2.00;;;;;;;7.35;79.37;102404.06;5053838;28;20568;-42
2022/12/08 05:05:32;;;;;;;3.65;2.03;;;;;;;7.41;79.68;102400.81;5062718;28;20032;-43
2022/12/08 05:07:58;;;;;;;3.55;2.30;;;;;;;7.42;79.58;102399.81;5071225;28;20025;-43
2022/12/08 05:10:24;;;;;;;3.17;1.73;;;;;;;7.39;79.61;102408.13;5070700;28;20036;-43
2022/12/08 05:12:51;;;;;;;5.80;2.22;;;;;;;7.14;80.37;102405.09;5073933;28;20028;-43
2022/12/08 05:15:17;;;;;;;2.78;2.42;;;;;;;6.76;82.18;102399.88;5065781;28;20107;-42
2022/12/08 05:17:43;;;;;;;5.72;2.28;;;;;;;6.63;83.78;102402.00;5074182;28;20035;-42
2022/12/08 05:20:10;;;;;;;5.63;2.67;;;;;;;6.50;84.34;102404.97;5070856;28;20024;-42
2022/12/08 05:22:37;;;;;;;3.38;2.58;;;;;;;6.13;86.48;102405.66;5067554;28;21464;-41
2022/12/08 05:25:03;;;;;;;5.38;2.90;;;;;;;6.39;85.67;102403.28;5073442;28;20408;-41
2022/12/08 05:27:29;;;;;;;5.63;2.80;;;;;;;6.51;85.17;102404.81;5040665;28;20095;-42
2022/12/08 05:29:56;;;;;;;5.55;2.45;;;;;;;6.68;84.18;102407.75;5053327;28;20371;-42
2022/12/08 05:32:22;;;;;;;3.47;2.50;;;;;;;6.73;83.69;102395.69;5053750;28;20020;-43
2022/12/08 05:34:48;;;;;;;5.78;2.97;;;;;;;6.73;83.56;102413.47;5052017;28;20029;-41
2022/12/08 05:37:14;;;;;;;4.47;2.85;;;;;;;6.82;83.05;102412.59;5033367;28;20036;-42
2022/12/08 05:39:41;;;;;;;6.47;3.20;;;;;;;6.77;82.88;102415.69;5033512;28;20031;-42
2022/12/08 05:42:07;;;;;;;5.88;3.00;;;;;;;6.76;82.84;102407.84;5033209;28;20316;-43
2022/12/08 05:44:33;;;;;;;4.70;2.60;;;;;;;6.70;83.59;102411.09;5048750;28;20025;-42
2022/12/08 05:46:59;;;;;;;3.92;2.38;;;;;;;6.70;83.66;102414.59;5041005;28;20025;-42
2022/12/08 05:49:26;;;;;;;4.30;2.80;;;;;;;6.77;83.55;102412.19;5056350;28;20023;-42
2022/12/08 05:51:52;;;;;;;5.25;2.83;;;;;;;6.67;84.10;102419.38;5073002;28;20027;-42
2022/12/08 05:54:18;;;;;;;3.55;2.78;;;;;;;6.67;84.13;102417.56;5070218;28;20040;-42
2022/12/08 05:56:44;;;;;;;8.27;2.80;;;;;;;6.76;83.64;102422.00;5073117;28;20469;-43
2022/12/08 05:59:10;;;;;;;5.70;2.85;;;;;;;6.77;83.47;102414.84;5058957;28;20041;-44
2022/12/08 06:01:37;;;;;;;5.05;2.75;;;;;;;6.81;83.34;102419.75;5051336;28;20064;-44
2022/12/08 06:04:04;;;;;;;5.22;3.10;;;;;;;6.91;82.78;102422.41;5052896;28;20053;-43
2022/12/08 06:06:33;;;;;;;4.45;2.40;;;;;;;6.94;82.84;102427.47;5068982;28;20061;-43
2022/12/08 06:09:00;;;;;;;3.75;2.85;;;;;;;6.94;82.28;102416.81;5073359;28;20028;-44
2022/12/08 06:11:29;;;;;;;6.95;3.33;;;;;;;6.90;81.93;102418.06;5069250;28;20024;-43
2022/12/08 06:13:57;;;;;;;3.15;2.70;;;;;;;6.91;81.92;102422.41;5033101;28;20033;-43
2022/12/08 06:16:25;;;;;;;6.20;3.28;;;;;;;6.95;81.88;102423.81;5032750;28;20034;-43
2022/12/08 06:18:51;;;;;;;5.32;2.95;;;;;;;6.91;82.13;102422.41;5051943;28;20386;-43
2022/12/08 06:21:18;;;;;;;4.00;2.78;;;;;;;6.82;82.20;102412.59;5052480;28;20063;-43
2022/12/08 06:23:48;;;;;;;5.97;3.00;;;;;;;6.84;82.23;102408.84;5069331;28;20025;-44
2022/12/08 06:26:16;;;;;;;4.75;3.13;;;;;;;6.91;81.72;102406.44;5072234;28;20059;-43
2022/12/08 06:28:43;;;;;;;7.72;3.08;;;;;;;6.91;81.81;102402.94;5052378;28;20029;-42
2022/12/08 06:31:10;;;;;;;5.82;3.20;;;;;;;6.91;81.79;102414.41;5049689;28;20032;-42
2022/12/08 06:33:37;;;;;;;3.28;2.53;;;;;;;6.88;82.10;102414.69;5052577;28;20478;-43
2022/12/08 06:36:05;;;;;;;4.35;2.40;;;;;;;6.84;81.84;102411.50;5055617;28;20032;-43
2022/12/08 06:38:32;;;;;;;5.80;3.05;;;;;;;6.71;82.41;102410.94;5072624;28;20036;-43
2022/12/08 06:40:58;;;;;;;4.20;2.50;;;;;;;6.80;81.91;102420.75;5063313;28;20108;-45
2022/12/08 06:43:26;;;;;;;6.18;2.22;;;;;;;6.78;82.07;102422.72;5052553;28;20060;-43
2022/12/08 06:45:52;;;;;;;6.28;2.85;;;;;;;6.86;81.78;102429.97;5050777;28;20504;-43
2022/12/08 06:48:19;;;;;;;3.42;2.40;;;;;;;6.74;81.66;102431.97;5070923;28;20035;-43
2022/12/08 06:50:45;;;;;;;5.45;2.28;;;;;;;6.78;81.61;102427.19;5065606;28;20498;-43
2022/12/08 06:53:12;;;;;;;2.88;2.50;;;;;;;6.79;81.56;102421.72;5052062;28;20024;-42
2022/12/08 06:55:52;;;;;;;3.28;2.65;;;;;;;6.72;81.76;102431.28;5067399;28;20523;-43
2022/12/08 06:58:19;;;;;;;3.95;2.40;;;;;;;6.66;81.92;102425.66;5063408;28;20024;-42
2022/12/08 07:00:45;;;;;;;7.28;2.60;;;;;;;6.68;82.24;102440.50;5059079;28;20032;-43
2022/12/08 07:03:13;;;;;;;10.52;2.85;;;;;;;6.54;83.20;102439.09;5050430;28;20366;-43
2022/12/08 07:05:40;;;;;;;8.43;2.70;;;;;;;6.56;82.98;102445.13;5050242;28;20032;-42
2022/12/08 07:08:07;;;;;;;4.15;2.70;;;;;;;6.51;83.36;102442.06;5051964;28;20025;-43
2022/12/08 07:10:34;;;;;;;6.10;2.55;;;;;;;6.38;84.78;102441.47;5051713;28;20024;-43
2022/12/08 07:13:01;;;;;;;3.55;2.58;;;;;;;6.48;84.32;102450.31;5051939;28;20075;-42
2022/12/08 07:15:27;;;;;;;4.18;2.75;;;;;;;6.52;83.72;102451.72;5043171;28;20029;-44
2022/12/08 07:17:53;;;;;;;3.35;2.58;;;;;;;6.56;83.26;102449.63;5057830;28;20373;-41
2022/12/08 07:20:20;;;;;;;5.53;2.50;;;;;;;6.52;83.00;102451.72;5071816;28;20025;-43
2022/12/08 07:22:52;;;;;;;6.57;2.90;;;;;;;6.56;82.69;102449.63;5062999;28;20025;-42
2022/12/08 07:25:19;;;;;;;3.90;2.65;;;;;;;6.50;82.54;102450.19;5051419;28;20099;-42
2022/12/08 07:27:46;;;;;;;3.60;2.53;;;;;;;6.53;82.61;102449.88;5051685;28;20035;-43
2022/12/08 07:30:12;;;;;;;4.38;2.80;;;;;;;6.55;82.24;102438.16;5050059;28;20498;-42
2022/12/08 07:32:39;;;;;;;4.57;2.83;;;;;;;6.62;82.35;102449.06;5051371;28;20079;-42
2022/12/08 07:35:06;;;;;;;5.32;2.58;;;;;;;6.78;81.79;102441.34;5051895;28;20048;-43
2022/12/08 07:37:34;;;;;;;8.52;3.80;;;;;;;6.49;83.73;102441.34;5051534;28;20039;-44
2022/12/08 07:40:01;;;;;;;5.28;4.10;;;;;;;6.46;83.96;102444.28;5051784;28;20032;-42
2022/12/08 07:42:27;;;;;;;4.95;3.38;;;;;;;6.53;84.31;102440.09;5051209;28;20051;-42
2022/12/08 07:44:53;;;;;;;6.40;4.00;;;;;;;6.66;83.67;102444.28;5051447;28;20064;-44
2022/12/08 07:47:19;;;;;;;7.43;4.40;;;;;;;6.67;83.45;102440.66;5051530;28;20055;-42
2022/12/08 07:49:46;;;;;;;10.25;4.78;;;;;;;6.73;83.51;102440.94;5051541;28;20071;-42
2022/12/08 07:52:12;;;;;;;4.80;3.22;;;;;;;6.73;83.52;102445.41;5066195;28;20035;-42
2022/12/08 07:54:38;;;;;;;6.20;3.78;;;;;;;6.82;83.22;102449.88;5071419;28;20115;-43
2022/12/08 07:57:04;;;;;;;5.35;3.70;;;;;;;6.77;83.31;102444.13;5060861;28;20021;-43
2022/12/08 07:59:31;;;;;;;5.55;3.95;;;;;;;6.80;82.87;102436.72;5051359;28;20025;-43
2022/12/08 08:01:57;;;;;;;11.20;10.15;;;;;;;6.80;82.66;102441.19;5051373;28;20363;-43
2022/12/08 08:04:24;;;;;;;29.88;26.85;;;;;;;6.80;82.50;102441.19;5051565;28;20428;-42
2022/12/08 08:06:50;;;;;;;37.20;33.38;;;;;;;6.75;82.45;102440.78;5052354;28;20052;-42
2022/12/08 08:09:16;;;;;;;46.65;41.95;;;;;;;6.70;82.24;102435.88;5070620;28;20391;-41
2022/12/08 08:11:43;;;;;;;57.70;51.97;;;;;;;6.62;82.38;102435.75;5074795;28;20021;-42
2022/12/08 08:14:09;;;;;;;57.60;51.47;;;;;;;6.67;82.02;102435.34;5075231;28;20623;-46
2022/12/08 08:16:35;;;;;;;46.13;41.10;;;;;;;6.59;82.05;102423.56;5037434;28;20048;-41
2022/12/08 08:19:01;;;;;;;31.38;25.23;;;;;;;6.61;82.33;102410.97;5034921;28;20075;-43
2022/12/08 08:21:28;;;;;;;21.80;18.50;;;;;;;6.54;82.59;102417.81;5034635;28;20032;-42
2022/12/08 08:23:54;;;;;;;17.65;13.85;;;;;;;6.58;82.54;102415.72;5035134;28;20033;-41
2022/12/08 08:26:20;;;;;;;11.80;10.60;;;;;;;6.54;82.64;102420.47;5068115;28;20056;-41
2022/12/08 08:28:48;;;;;;;9.10;7.93;;;;;;;6.57;82.66;102419.38;5074592;28;20021;-41
2022/12/08 08:31:15;;;;;;;8.43;7.57;;;;;;;6.53;82.41;102421.47;5074470;28;20102;-41
2022/12/08 08:33:41;;;;;;;8.32;7.28;;;;;;;6.54;82.23;102416.97;5062263;28;20112;-42
2022/12/08 08:36:08;;;;;;;8.90;6.70;;;;;;;6.46;81.90;102423.00;5054654;28;20029;-41
2022/12/08 08:38:41;;;;;;;7.47;6.20;;;;;;;6.48;81.83;102426.38;5054715;28;20035;-43
2022/12/08 08:41:09;;;;;;;8.82;6.38;;;;;;;6.46;81.83;102423.00;5054213;28;20477;-41
2022/12/08 08:43:35;;;;;;;6.90;5.40;;;;;;;6.42;81.59;102413.63;5072542;28;20493;-42
2022/12/08 08:46:03;;;;;;;6.35;5.05;;;;;;;6.42;81.39;102421.59;5074371;28;20064;-42
2022/12/08 08:48:31;;;;;;;8.43;4.28;;;;;;;6.53;80.90;102429.44;5074507;28;20027;-43
2022/12/08 08:50:58;;;;;;;4.80;3.83;;;;;;;6.43;80.94;102433.91;5064420;28;20040;-40
2022/12/08 08:53:24;;;;;;;4.45;3.25;;;;;;;6.33;81.19;102439.25;5054264;28;20036;-42
2022/12/08 08:55:51;;;;;;;7.60;4.38;;;;;;;6.32;81.18;102440.22;5074371;28;20033;-41
2022/12/08 08:58:17;;;;;;;7.25;4.30;;;;;;;6.43;80.94;102433.09;5066236;28;20071;-42
2022/12/08 09:00:44;;;;;;;4.50;3.50;;;;;;;6.32;81.00;102437.56;5072539;28;20020;-41
2022/12/08 09:03:10;;;;;;;5.30;3.53;;;;;;;6.21;81.11;102435.03;5070865;28;20017;-42
2022/12/08 09:05:40;;;;;;;6.53;3.72;;;;;;;6.21;81.15;102436.84;5074183;28;20480;-42
2022/12/08 09:08:07;;;;;;;3.53;3.22;;;;;;;6.25;80.66;102435.59;5064348;28;20049;-42
2022/12/08 09:10:33;;;;;;;5.00;3.10;;;;;;;6.20;80.66;102445.81;5053979;28;20516;-42
2022/12/08 09:13:00;;;;;;;8.27;4.00;;;;;;;6.13;80.42;102439.38;5051922;28;20482;-42
2022/12/08 09:15:26;;;;;;;4.55;3.40;;;;;;;6.10;80.88;102443.13;5045212;28;20040;-42
2022/12/08 09:17:53;;;;;;;4.32;3.25;;;;;;;6.08;81.18;102445.94;5034952;28;20321;-44
2022/12/08 09:20:19;;;;;;;6.13;3.35;;;;;;;6.14;80.93;102457.84;5052481;28;20059;-42
2022/12/08 09:22:45;;;;;;;7.20;3.58;;;;;;;6.09;81.23;102458.25;5054299;28;20024;-42
2022/12/08 09:25:11;;;;;;;4.53;2.97;;;;;;;6.13;81.36;102458.81;5073532;28;20059;-42
2022/12/08 09:27:37;;;;;;;4.47;3.10;;;;;;;6.17;81.40;102454.06;5071108;28;20028;-43
2022/12/08 09:30:04;;;;;;;4.95;3.08;;;;;;;6.14;81.63;102455.19;5073559;28;20025;-42
2022/12/08 09:32:31;;;;;;;5.82;2.78;;;;;;;6.19;81.54;102458.25;5072136;28;20054;-42
2022/12/08 09:34:57;;;;;;;5.55;2.90;;;;;;;6.19;81.38;102457.44;5070567;28;20032;-42
2022/12/08 09:37:23;;;;;;;4.50;2.78;;;;;;;6.13;81.45;102455.31;5073659;28;20370;-42
2022/12/08 09:39:49;;;;;;;5.43;2.92;;;;;;;6.15;81.23;102461.31;5070746;28;20484;-42
2022/12/08 09:42:43;;;;;;;4.90;2.90;;;;;;;6.08;80.83;102464.53;5073246;28;20025;-43
2022/12/08 09:45:16;;;;;;;8.00;3.97;;;;;;;6.37;80.10;102455.75;5072904;28;20047;-42
2022/12/08 09:47:47;;;;;;;7.95;6.68;;;;;;;6.09;80.72;102458.25;5072003;28;20067;-42
2022/12/08 09:50:21;;;;;;;9.75;8.23;;;;;;;5.93;81.31;102459.75;5052655;28;20056;-43
2022/12/08 09:53:06;;;;;;;8.73;6.85;;;;;;;5.94;81.08;102456.09;5052095;28;20432;-41
2022/12/08 09:55:50;;;;;;;8.50;7.47;;;;;;;5.92;81.42;102464.22;5073449;28;20040;-42
2022/12/08 09:58:51;;;;;;;11.85;7.95;;;;;;;6.08;80.74;102461.03;5069630;28;20056;-41
2022/12/08 10:01:19;;;;;;;12.25;8.07;;;;;;;5.99;81.13;102457.38;5072847;28;20039;-42
2022/12/08 10:03:46;;;;;;;9.55;7.88;;;;;;;6.00;81.38;102459.06;5061450;28;20032;-42
2022/12/08 10:06:32;;;;;;;10.18;9.10;;;;;;;6.00;81.39;102459.06;5053092;28;20481;-43
2022/12/08 10:09:25;;;;;;;11.43;10.05;;;;;;;6.03;81.82;102461.44;5066129;28;20042;-42
2022/12/08 10:17:36;;;;;;;11.30;10.10;;;;;;;6.19;81.47;102468.06;5251280;22;20057;-52
2022/12/08 10:20:17;;;;;;;10.82;9.73;;;;;;;6.20;81.48;102467.06;5011342;28;20065;-50
2022/12/08 10:22:46;;;;;;;10.07;9.05;;;;;;;6.15;81.42;102478.13;5013012;28;20104;-49
2022/12/08 10:25:48;;;;;;;11.15;8.82;;;;;;;6.19;81.42;102465.41;5011233;28;20033;-50
2022/12/08 10:28:15;;;;;;;7.75;7.03;;;;;;;6.15;81.37;102466.66;5013079;28;20038;-50
2022/12/08 10:30:42;;;;;;;9.15;8.20;;;;;;;6.11;81.24;102459.91;5011703;28;20119;-48
2022/12/08 10:33:17;;;;;;;10.23;8.73;;;;;;;6.28;80.66;102457.44;5012130;28;20109;-50
2022/12/08 10:35:57;;;;;;;13.90;8.75;;;;;;;6.09;80.90;102462.72;5011460;28;20037;-48
2022/12/08 10:38:30;;;;;;;7.55;6.70;;;;;;;6.07;81.21;102454.88;5012749;28;20026;-48
2022/12/08 10:41:10;;;;;;;11.13;9.23;;;;;;;6.03;81.44;102458.78;5012546;28;20095;-51
2022/12/08 10:43:47;;;;;;;9.63;8.40;;;;;;;6.07;81.29;102470.84;5014768;28;20037;-52
2022/12/08 10:46:21;;;;;;;10.02;8.93;;;;;;;5.98;80.78;102463.66;5012198;28;20037;-52
2022/12/08 10:48:53;;;;;;;10.98;9.23;;;;;;;5.94;80.89;102464.94;5020834;28;20373;-50
2022/12/08 10:51:34;;;;;;;9.55;8.38;;;;;;;5.88;81.11;102470.75;5015770;28;20508;-50
2022/12/08 10:54:02;;;;;;;9.30;8.43;;;;;;;5.84;80.83;102458.72;5012411;28;20026;-49
2022/12/08 10:56:30;;;;;;;9.82;8.15;;;;;;;5.78;80.86;102454.78;5022901;28;20495;-51
2022/12/08 10:59:16;;;;;;;9.35;7.82;;;;;;;5.80;80.46;102457.31;5012756;28;20116;-49
2022/12/08 11:01:47;;;;;;;11.52;8.50;;;;;;;5.73;80.25;102456.16;5011596;28;20075;-52
2022/12/08 11:04:30;;;;;;;8.90;7.50;;;;;;;5.76;80.42;102455.88;5011409;28;20022;-52
2022/12/08 11:06:57;;;;;;;8.25;6.80;;;;;;;5.85;80.03;102463.06;5012211;28;20124;-52
2022/12/08 11:09:38;;;;;;;9.52;7.18;;;;;;;5.90;79.82;102452.03;5028662;28;20112;-52
2022/12/08 11:12:16;;;;;;;9.80;7.45;;;;;;;5.86;80.04;102448.78;5025919;28;20416;-52
2022/12/08 11:14:42;;;;;;;10.90;8.38;;;;;;;5.82;79.76;102444.72;5011731;28;20039;-52
2022/12/08 11:17:38;;;;;;;8.85;7.93;;;;;;;5.81;79.91;102435.91;5012110;28;20084;-50
2022/12/08 11:20:21;;;;;;;9.23;8.13;;;;;;;5.65;80.05;102432.91;5011620;28;20815;-50
2022/12/08 11:22:55;;;;;;;9.23;8.32;;;;;;;5.68;80.33;102437.13;5011364;28;20105;-52
2022/12/08 11:25:26;;;;;;;14.45;8.75;;;;;;;5.54;80.22;102435.66;5011359;28;20034;-52
2022/12/08 11:27:58;;;;;;;9.73;8.13;;;;;;;5.51;80.26;102430.63;5013533;28;20045;-51
2022/12/08 11:30:29;;;;;;;8.57;7.55;;;;;;;5.47;80.01;102432.72;5010783;28;20484;-52
2022/12/08 11:33:12;;;;;;;11.90;7.55;;;;;;;5.44;80.16;102425.03;5010866;28;20060;-51
2022/12/08 11:35:43;;;;;;;10.82;7.43;;;;;;;5.46;80.07;102425.72;5013106;28;20084;-52
2022/12/08 11:38:13;;;;;;;9.57;7.13;;;;;;;5.44;79.96;102425.03;5010662;28;20030;-50
2022/12/08 11:40:43;;;;;;;9.32;6.82;;;;;;;5.50;80.42;102423.66;5016172;28;20501;-50
2022/12/08 11:43:44;;;;;;;8.13;7.15;;;;;;;5.38;80.82;102416.72;5025381;28;20108;-48
2022/12/08 11:46:33;;;;;;;8.68;7.93;;;;;;;5.39;80.90;102415.78;5017367;28;20355;-50
2022/12/08 11:49:08;;;;;;;9.40;8.50;;;;;;;5.56;80.68;102415.97;5023960;28;20105;-51
2022/12/08 11:51:56;;;;;;;11.17;8.20;;;;;;;5.64;80.66;102415.28;5035052;28;20469;-51
2022/12/08 11:54:29;;;;;;;7.85;7.13;;;;;;;5.58;81.09;102413.19;5035295;28;20263;-50